Time;durP1;ratioP1;P1;durP2;ratioP2;P2;SDS_P1;SDS_P2;PMS_P1;PMS_P2;Temp;Humidity;BMP_temperature;BMP_pressure;BME280_temperature;BME280_humidity;BME280_pressure;Samples;Min_cycle;Max_cycle;Signal;HPM_P1;HPM_P2
2023/08/04 00:01:56;;;;;;;;;;;;;;;29.10;45.14;100171.88;4940875;28;20517;-77
2023/08/04 00:04:23;;;;;;;11.90;4.20;;;;;;;28.84;44.50;100130.81;4937441;28;20015;-80
2023/08/04 00:06:50;;;;;;;8.43;3.53;;;;;;;29.07;44.95;100167.78;4937265;28;20050;-78
2023/08/04 00:09:16;;;;;;;7.88;4.22;;;;;;;29.17;45.72;100175.97;4952472;28;20050;-78
2023/08/04 00:11:43;;;;;;;7.90;4.18;;;;;;;29.13;44.67;100174.91;4957366;28;20064;-78
2023/08/04 00:14:10;;;;;;;6.90;3.70;;;;;;;28.92;43.62;100154.06;4966569;28;20116;-81
2023/08/04 00:16:37;;;;;;;6.63;4.10;;;;;;;29.03;45.95;100177.59;4944153;28;20057;-78
2023/08/04 00:19:04;;;;;;;7.35;3.70;;;;;;;29.15;46.16;100147.28;4940373;28;20058;-77
2023/08/04 00:21:30;;;;;;;8.18;4.32;;;;;;;29.14;45.93;100160.13;4938904;28;20078;-77
2023/08/04 00:24:01;;;;;;;9.23;4.28;;;;;;;29.10;44.98;100163.69;4941442;28;20046;-80
2023/08/04 00:26:32;;;;;;;9.82;3.60;;;;;;;28.93;44.13;100161.16;4914949;28;20227;-80
2023/08/04 00:29:03;;;;;;;9.40;3.60;;;;;;;28.50;43.59;100103.13;4946112;28;20050;-78
2023/08/04 00:31:30;;;;;;;4.20;3.70;;;;;;;28.46;42.83;100096.56;4943702;28;20479;-78
2023/08/04 00:34:06;;;;;;;5.78;4.18;;;;;;;28.16;45.60;100043.47;4973299;28;20122;-77
2023/08/04 00:36:33;;;;;;;12.52;3.60;;;;;;;28.87;43.47;100178.63;4952869;28;20116;-78
2023/08/04 00:39:03;;;;;;;4.90;3.50;;;;;;;28.86;46.26;100185.16;4961147;28;20577;-78
2023/08/04 00:41:30;;;;;;;6.97;3.70;;;;;;;28.76;45.41;100164.09;4955162;28;20081;-79
2023/08/04 00:43:57;;;;;;;9.40;3.28;;;;;;;28.57;43.79;100125.53;4977424;28;20373;-78
2023/08/04 00:46:26;;;;;;;7.60;3.80;;;;;;;28.76;43.35;100156.75;4952105;28;20066;-78
2023/08/04 00:48:53;;;;;;;8.35;4.05;;;;;;;28.55;43.29;100128.53;4927122;28;20126;-78
2023/08/04 00:51:23;;;;;;;7.35;3.38;;;;;;;28.84;43.95;100173.72;4939435;28;20182;-77
2023/08/04 00:53:50;;;;;;;5.43;3.83;;;;;;;28.47;44.70;100117.28;4936216;28;20050;-78
2023/08/04 00:56:18;;;;;;;9.05;3.42;;;;;;;28.92;43.39;100186.84;4968525;28;20123;-80
2023/08/04 00:58:46;;;;;;;7.47;3.42;;;;;;;28.85;42.94;100172.59;4924674;28;20054;-79
2023/08/04 01:01:13;;;;;;;5.03;3.58;;;;;;;28.46;43.61;100118.38;4919074;28;20406;-80
2023/08/04 01:03:41;;;;;;;7.43;3.70;;;;;;;28.82;43.43;100170.41;4925205;28;20058;-80
2023/08/04 01:06:34;;;;;;;9.52;3.45;;;;;;;28.79;43.25;100173.66;4925384;28;20109;-82
2023/08/04 01:09:09;;;;;;;8.57;3.55;;;;;;;28.74;43.26;100167.13;4958296;28;20120;-78
2023/08/04 01:11:46;;;;;;;8.13;3.42;;;;;;;28.72;43.77;100139.25;4956877;28;20877;-81
2023/08/04 01:14:18;;;;;;;8.43;3.60;;;;;;;28.64;42.34;100126.09;4932764;28;20320;-81
2023/08/04 01:16:47;;;;;;;7.88;3.17;;;;;;;28.88;41.75;100142.00;4947535;28;20190;-79
2023/08/04 01:19:14;;;;;;;6.47;3.28;;;;;;;28.84;40.58;100146.38;4936856;28;20261;-79
2023/08/04 01:21:42;;;;;;;7.32;3.25;;;;;;;28.93;43.35;100134.66;4937117;28;20047;-82
2023/08/04 01:24:10;;;;;;;7.03;3.20;;;;;;;28.83;41.62;100133.81;4955233;28;20185;-79
2023/08/04 01:26:41;;;;;;;5.30;2.85;;;;;;;28.91;42.08;100152.38;4953201;28;20057;-79
2023/08/04 01:29:10;;;;;;;5.47;3.08;;;;;;;28.81;41.35;100141.44;4960904;28;20112;-81
2023/08/04 01:31:38;;;;;;;6.03;3.10;;;;;;;28.86;41.26;100152.38;4958065;28;20050;-79
2023/08/04 01:34:08;;;;;;;;;;;;;;;28.77;39.92;100157.56;4945191;28;20065;-79
2023/08/04 01:36:38;;;;;;;4.63;2.50;;;;;;;28.74;42.87;100153.47;4934526;28;19984;-78
2023/08/04 01:39:05;;;;;;;8.07;3.03;;;;;;;28.70;41.26;100152.34;4948947;28;20045;-79
2023/08/04 01:41:32;;;;;;;6.85;2.60;;;;;;;28.70;40.19;100149.59;4981235;28;20057;-80
2023/08/04 01:43:59;;;;;;;5.45;2.72;;;;;;;28.70;40.95;100146.88;4929938;28;20126;-78
2023/08/04 01:46:26;;;;;;;5.90;3.22;;;;;;;28.81;44.15;100144.16;4933888;28;20652;-80
2023/08/04 01:48:54;;;;;;;6.78;3.40;;;;;;;28.69;44.19;100128.00;4933737;28;20046;-81
2023/08/04 01:51:25;;;;;;;6.30;3.20;;;;;;;28.96;44.88;100160.63;4928640;28;20050;-80
2023/08/04 01:53:57;;;;;;;4.70;2.75;;;;;;;28.90;42.33;100151.56;4904574;28;20050;-78
2023/08/04 01:56:31;;;;;;;4.80;2.88;;;;;;;28.72;42.79;100131.06;4913112;28;20054;-80
2023/08/04 01:59:10;;;;;;;5.70;3.13;;;;;;;28.87;44.11;100145.84;4925874;28;20046;-80
2023/08/04 02:01:38;;;;;;;4.90;3.38;;;;;;;28.94;45.97;100146.41;4934919;28;20470;-81
2023/08/04 02:04:11;;;;;;;4.75;2.90;;;;;;;28.92;42.28;100154.88;4923709;28;20113;-81
2023/08/04 02:06:39;;;;;;;4.22;2.53;;;;;;;28.76;43.71;100126.69;4950798;28;20051;-79
2023/08/04 02:09:06;;;;;;;5.35;2.97;;;;;;;28.63;43.38;100105.34;4944103;28;20050;-80
2023/08/04 02:11:33;;;;;;;3.30;2.10;;;;;;;28.83;40.72;100133.81;4944514;28;20348;-79
2023/08/04 02:14:00;;;;;;;6.25;2.92;;;;;;;28.80;39.60;100142.53;4963905;28;20116;-81
2023/08/04 02:16:29;;;;;;;6.88;3.08;;;;;;;28.69;38.97;100128.88;4915312;28;20359;-82
2023/08/04 02:19:04;;;;;;;4.63;2.70;;;;;;;28.24;42.60;100066.69;4913305;28;20461;-80
2023/08/04 02:21:36;;;;;;;5.28;3.00;;;;;;;28.68;41.73;100134.59;4930166;28;20050;-80
2023/08/04 02:24:04;;;;;;;10.88;2.33;;;;;;;28.67;39.10;100147.41;4927988;28;20347;-80
2023/08/04 02:26:31;;;;;;;6.18;3.08;;;;;;;29.06;45.66;100160.69;4935852;28;20578;-80
2023/08/04 02:29:02;;;;;;;4.95;2.83;;;;;;;29.05;44.95;100153.53;4973552;28;20460;-81
2023/08/04 02:31:36;;;;;;;8.90;2.63;;;;;;;28.43;40.10;100097.06;4945372;28;20058;-79
2023/08/04 02:34:04;;;;;;;3.85;2.60;;;;;;;28.59;43.05;100128.81;4928631;28;20061;-78
2023/08/04 02:36:32;;;;;;;9.88;2.92;;;;;;;28.66;39.81;100145.75;4919586;28;20062;-79
2023/08/04 02:39:00;;;;;;;2.65;2.45;;;;;;;29.17;47.23;100143.19;4932252;28;20124;-79
2023/08/04 02:41:27;;;;;;;6.32;3.00;;;;;;;29.51;43.72;100141.84;4922898;28;20078;-78
2023/08/04 02:43:53;;;;;;;3.65;2.67;;;;;;;29.10;43.87;100112.56;4930713;28;20266;-78
2023/08/04 02:46:25;;;;;;;6.13;2.67;;;;;;;29.22;45.78;100108.75;4939243;28;20054;-81
2023/08/04 02:48:59;;;;;;;5.82;2.25;;;;;;;28.98;38.61;100136.56;4941754;28;20054;-82
2023/08/04 02:51:26;;;;;;;5.32;2.80;;;;;;;28.92;38.62;100148.59;4925466;28;20046;-79
2023/08/04 02:53:53;;;;;;;3.60;2.13;;;;;;;28.63;38.56;100119.00;4917466;28;20467;-81
2023/08/04 02:56:20;;;;;;;9.10;2.85;;;;;;;28.73;40.05;100140.88;4918128;28;20202;-81
2023/08/04 02:58:47;;;;;;;7.50;2.10;;;;;;;28.45;39.08;100112.13;4933687;28;20046;-79
2023/08/04 03:01:14;;;;;;;8.32;2.55;;;;;;;28.43;40.06;100102.53;4925041;28;20085;-79
2023/08/04 03:03:45;;;;;;;5.18;2.53;;;;;;;28.77;41.32;100142.00;4929174;28;20055;-79
2023/08/04 03:06:12;;;;;;;3.58;2.55;;;;;;;28.77;37.95;100138.44;4919298;28;20141;-81
2023/08/04 03:08:39;;;;;;;5.05;2.13;;;;;;;28.71;38.58;100120.38;4960673;28;20459;-81
2023/08/04 03:11:10;;;;;;;4.03;2.67;;;;;;;28.59;40.17;100126.06;4956531;28;20591;-81
2023/08/04 03:13:38;;;;;;;5.40;2.20;;;;;;;28.54;40.28;100132.34;4935067;28;20061;-81
2023/08/04 03:16:07;;;;;;;8.73;2.63;;;;;;;28.48;38.41;100121.69;4939588;28;20064;-80
2023/08/04 03:18:34;;;;;;;5.50;2.35;;;;;;;28.50;38.53;100125.78;4933355;28;20058;-80
2023/08/04 03:21:04;;;;;;;4.63;2.70;;;;;;;28.22;41.53;100086.03;4929969;28;20074;-80
2023/08/04 03:23:31;;;;;;;4.00;2.58;;;;;;;28.10;41.52;100069.06;4918913;28;20455;-82
2023/08/04 03:25:58;;;;;;;7.22;2.45;;;;;;;28.21;39.79;100098.06;4942973;28;20051;-80
2023/08/04 03:28:25;;;;;;;5.60;2.08;;;;;;;28.38;39.49;100129.81;4924860;28;20831;-81
2023/08/04 03:30:52;;;;;;;3.63;2.47;;;;;;;28.44;42.33;100109.63;4931929;28;20070;-79
2023/08/04 03:33:19;;;;;;;8.50;2.67;;;;;;;28.45;38.86;100138.53;4949315;28;20136;-78
2023/08/04 03:35:49;;;;;;;5.65;2.72;;;;;;;28.52;39.57;100158.25;4946011;28;20418;-78
2023/08/04 03:38:21;;;;;;;7.72;2.80;;;;;;;28.44;39.60;100142.38;4915276;28;20047;-81
2023/08/04 03:40:50;;;;;;;7.95;2.40;;;;;;;28.34;38.06;100119.41;4898299;28;20459;-80
2023/08/04 03:43:22;;;;;;;4.03;2.47;;;;;;;28.39;38.20;100128.69;4922666;28;20121;-80
2023/08/04 03:45:49;;;;;;;10.60;2.75;;;;;;;28.45;40.43;100144.88;4942904;28;20499;-77
2023/08/04 03:48:15;;;;;;;7.13;2.50;;;;;;;28.37;40.41;100139.06;4944542;28;20081;-79
2023/08/04 03:50:43;;;;;;;8.13;2.55;;;;;;;28.39;38.18;100140.44;4952350;28;20061;-79
2023/08/04 03:53:10;;;;;;;13.50;2.88;;;;;;;28.43;38.47;100148.94;4928236;28;20058;-78
2023/08/04 03:55:37;;;;;;;2.92;2.33;;;;;;;28.21;39.11;100130.81;4932744;28;20564;-79
2023/08/04 03:58:04;;;;;;;6.38;2.80;;;;;;;27.96;39.87;100097.91;4951453;28;20112;-79
2023/08/04 04:00:31;;;;;;;3.20;2.35;;;;;;;28.26;39.80;100141.75;4913727;28;20050;-78
2023/08/04 04:02:58;;;;;;;5.97;2.58;;;;;;;28.24;39.12;100143.09;4944117;28;20097;-79
2023/08/04 04:05:28;;;;;;;5.82;2.45;;;;;;;27.87;39.07;100100.31;4931963;28;20639;-78
2023/08/04 04:07:58;;;;;;;6.28;2.83;;;;;;;28.04;39.71;100149.25;4963989;28;20124;-78
2023/08/04 04:10:24;;;;;;;3.75;2.30;;;;;;;27.73;40.13;100110.84;4947238;28;20521;-79
2023/08/04 04:12:51;;;;;;;6.35;2.95;;;;;;;27.81;40.11;100126.69;4954658;28;20041;-80
2023/08/04 04:15:18;;;;;;;6.20;2.50;;;;;;;27.88;40.83;100149.16;4927682;28;20077;-77
2023/08/04 04:17:44;;;;;;;6.07;2.65;;;;;;;27.57;39.69;100109.06;4946911;28;20369;-79
2023/08/04 04:20:11;;;;;;;6.15;2.63;;;;;;;27.83;41.77;100149.09;4944228;28;20238;-80
2023/08/04 04:22:38;;;;;;;4.88;2.63;;;;;;;27.85;40.67;100155.13;4939170;28;20686;-81
2023/08/04 04:25:05;;;;;;;11.73;3.20;;;;;;;27.20;41.82;100047.19;4952503;28;20116;-79
2023/08/04 04:27:32;;;;;;;7.13;3.00;;;;;;;27.94;42.59;100154.63;4958334;28;20516;-81
2023/08/04 04:30:01;;;;;;;5.82;2.50;;;;;;;27.91;41.42;100155.97;4963712;28;20080;-81
2023/08/04 04:32:34;;;;;;;5.97;2.70;;;;;;;27.87;41.21;100160.34;4958586;28;20050;-81
2023/08/04 04:35:05;;;;;;;10.05;3.35;;;;;;;27.58;41.52;100136.09;4954760;28;20050;-80
2023/08/04 04:37:40;;;;;;;5.38;3.10;;;;;;;27.73;41.65;100157.19;4924646;28;20054;-80
2023/08/04 04:40:08;;;;;;;6.57;2.58;;;;;;;27.82;44.13;100157.53;4931405;28;20058;-80
2023/08/04 04:42:35;;;;;;;3.65;2.50;;;;;;;27.95;47.54;100156.28;4928478;28;20102;-80
2023/08/04 04:45:01;;;;;;;5.53;2.65;;;;;;;27.58;43.57;100092.47;4947513;28;20050;-80
2023/08/04 04:47:28;;;;;;;5.40;2.50;;;;;;;27.88;43.11;100140.16;4959688;28;20050;-79
2023/08/04 04:49:58;;;;;;;8.68;2.67;;;;;;;28.09;43.13;100157.47;4955151;28;20169;-81
2023/08/04 04:52:39;;;;;;;4.85;2.75;;;;;;;28.18;46.67;100161.34;4917667;28;20529;-81
2023/08/04 04:55:11;;;;;;;3.30;2.47;;;;;;;28.06;43.00;100149.78;4939900;28;20049;-80
2023/08/04 04:57:40;;;;;;;4.97;2.15;;;;;;;28.03;39.99;100166.69;4942281;28;20054;-78
2023/08/04 05:00:08;;;;;;;4.38;2.40;;;;;;;27.70;42.11;100117.63;4946196;28;20441;-79
2023/08/04 05:02:35;;;;;;;6.07;4.20;;;;;;;28.10;43.50;100164.56;4941706;28;20579;-82
2023/08/04 05:05:02;;;;;;;7.68;2.83;;;;;;;28.07;40.28;100170.56;4952585;28;20140;-79
2023/08/04 05:07:33;;;;;;;5.55;2.65;;;;;;;27.82;43.60;100147.47;4954634;28;20096;-80
2023/08/04 05:10:01;;;;;;;4.15;2.92;;;;;;;28.03;40.63;100186.63;4947680;28;20532;-81
2023/08/04 05:12:28;;;;;;;11.77;2.55;;;;;;;28.07;41.57;100184.19;4949545;28;20057;-79
2023/08/04 05:14:59;;;;;;;5.40;2.90;;;;;;;28.03;40.33;100183.88;4930173;28;20310;-80
2023/08/04 05:17:30;;;;;;;7.53;2.78;;;;;;;28.02;42.86;100189.63;4932731;28;20072;-77
2023/08/04 05:19:57;;;;;;;6.57;3.65;;;;;;;27.63;41.77;100127.13;4947728;28;20084;-81
2023/08/04 05:22:24;;;;;;;3.95;2.30;;;;;;;27.91;41.81;100189.56;4961009;28;20387;-79
2023/08/04 05:24:53;;;;;;;5.18;2.25;;;;;;;27.96;42.34;100196.94;4939057;28;20411;-79
2023/08/04 05:27:35;;;;;;;3.03;2.17;;;;;;;28.10;44.39;100216.41;4926148;28;20047;-79
2023/08/04 05:30:02;;;;;;;5.88;2.80;;;;;;;27.97;44.15;100165.03;4944366;28;20249;-80
2023/08/04 05:32:29;;;;;;;9.65;3.20;;;;;;;28.04;42.28;100199.19;4954415;28;20260;-81
2023/08/04 05:34:59;;;;;;;6.45;2.60;;;;;;;28.10;39.88;100208.22;4942258;28;20050;-78
2023/08/04 05:37:28;;;;;;;4.35;2.40;;;;;;;28.11;41.63;100207.16;4944701;28;20478;-80
2023/08/04 05:39:55;;;;;;;6.45;3.17;;;;;;;27.95;41.30;100178.94;4960932;28;20085;-80
2023/08/04 05:42:21;;;;;;;5.78;2.58;;;;;;;27.53;39.68;100127.88;4932977;28;20047;-80
2023/08/04 05:44:48;;;;;;;8.55;2.60;;;;;;;28.08;38.19;100215.84;4941529;28;20379;-81
2023/08/04 05:47:15;;;;;;;4.40;1.83;;;;;;;27.98;40.21;100200.22;4953545;28;20054;-78
2023/08/04 05:49:47;;;;;;;6.97;2.03;;;;;;;28.11;39.02;100215.34;4943490;28;20351;-81
2023/08/04 05:52:16;;;;;;;5.75;3.05;;;;;;;28.12;38.31;100216.97;4946078;28;20046;-79
2023/08/04 05:54:43;;;;;;;7.78;2.83;;;;;;;28.16;41.59;100217.25;4936447;28;20085;-78
2023/08/04 05:57:14;;;;;;;7.15;2.25;;;;;;;28.09;40.75;100201.13;4923771;28;20317;-80
2023/08/04 05:59:44;;;;;;;7.22;2.42;;;;;;;27.99;37.16;100193.69;4935505;28;20144;-79
2023/08/04 06:02:16;;;;;;;8.52;2.38;;;;;;;27.90;36.44;100187.91;4962587;28;20062;-79
2023/08/04 06:04:44;;;;;;;7.80;2.78;;;;;;;27.97;36.95;100219.59;4955519;28;20061;-77
2023/08/04 06:07:13;;;;;;;8.45;2.47;;;;;;;28.06;37.54;100232.50;4957241;28;20509;-81
2023/08/04 06:09:41;;;;;;;8.60;2.20;;;;;;;28.02;37.35;100231.38;4948133;28;20062;-79
2023/08/04 06:12:08;;;;;;;10.90;2.20;;;;;;;27.80;36.53;100206.88;4939459;28;20452;-80
2023/08/04 06:14:35;;;;;;;9.90;2.35;;;;;;;28.11;38.79;100240.72;4925745;28;20042;-78
2023/08/04 06:17:06;;;;;;;7.55;2.45;;;;;;;28.17;38.51;100241.56;4943084;28;20046;-79
2023/08/04 06:19:33;;;;;;;8.85;2.05;;;;;;;27.98;37.38;100221.22;4947115;28;20141;-77
2023/08/04 06:22:00;;;;;;;4.93;2.55;;;;;;;28.18;39.56;100242.38;4917515;28;20062;-78
2023/08/04 06:24:30;;;;;;;9.25;2.10;;;;;;;27.80;38.17;100192.44;4946555;28;20370;-78
2023/08/04 06:26:59;;;;;;;7.85;2.47;;;;;;;27.85;39.16;100196.03;4954498;28;20136;-78
2023/08/04 06:29:26;;;;;;;7.00;2.45;;;;;;;28.12;37.62;100255.16;4941951;28;20045;-79
2023/08/04 06:31:53;;;;;;;11.18;2.42;;;;;;;28.27;40.73;100249.81;4950174;28;20129;-79
2023/08/04 06:34:21;;;;;;;7.40;3.28;;;;;;;28.27;40.46;100257.19;4945381;28;20267;-78
2023/08/04 06:36:47;;;;;;;7.55;2.28;;;;;;;28.04;38.84;100236.56;4936802;28;20062;-78
2023/08/04 06:39:14;;;;;;;6.28;3.08;;;;;;;27.89;39.34;100219.00;4955195;28;20391;-78
2023/08/04 06:41:49;;;;;;;7.38;2.08;;;;;;;27.94;35.66;100192.81;4919225;28;20060;-80
2023/08/04 06:44:32;;;;;;;11.95;2.13;;;;;;;28.07;36.06;100225.13;4909191;28;20104;-78
2023/08/04 06:47:11;;;;;;;10.13;2.55;;;;;;;28.12;37.60;100231.44;4899445;28;20338;-78
2023/08/04 06:50:03;;;;;;;8.40;2.08;;;;;;;28.00;33.79;100208.97;4907751;28;20212;-78
2023/08/04 06:52:42;;;;;;;8.40;2.10;;;;;;;27.84;35.77;100188.94;4910543;28;20502;-78
2023/08/04 06:55:12;;;;;;;7.40;2.40;;;;;;;27.84;34.94;100197.13;4923582;28;20054;-78
2023/08/04 06:57:39;;;;;;;9.77;2.20;;;;;;;27.96;36.21;100224.22;4932297;28;20076;-79
2023/08/04 07:00:12;;;;;;;5.72;2.47;;;;;;;27.94;37.12;100214.63;4912815;28;20659;-79
2023/08/04 07:02:42;;;;;;;11.18;2.50;;;;;;;27.80;35.05;100182.34;4913657;28;20057;-79
2023/08/04 07:05:11;;;;;;;12.32;2.60;;;;;;;27.87;35.22;100212.16;4928368;28;20419;-80
2023/08/04 07:07:38;;;;;;;10.25;2.63;;;;;;;27.30;35.75;100120.84;4927988;28;20571;-78
2023/08/04 07:10:05;;;;;;;10.50;3.10;;;;;;;27.94;36.41;100209.19;4941497;28;20383;-77
2023/08/04 07:12:33;;;;;;;9.02;2.30;;;;;;;27.88;35.05;100187.31;4919863;28;20038;-77
2023/08/04 07:15:00;;;;;;;5.55;2.40;;;;;;;27.82;35.35;100184.81;4938199;28;20129;-79
2023/08/04 07:17:26;;;;;;;8.65;2.20;;;;;;;27.45;36.85;100136.50;4926322;28;20047;-76
2023/08/04 07:19:53;;;;;;;5.82;2.58;;;;;;;27.92;36.86;100207.56;4922060;28;20046;-78
2023/08/04 07:22:20;;;;;;;6.30;2.10;;;;;;;27.88;36.35;100202.88;4925779;28;20065;-79
2023/08/04 07:24:53;;;;;;;11.85;3.05;;;;;;;27.87;35.91;100204.78;4920553;28;20051;-77
2023/08/04 07:27:24;;;;;;;9.60;2.28;;;;;;;27.91;36.65;100208.66;4941550;28;20307;-79
2023/08/04 07:29:52;;;;;;;9.05;2.35;;;;;;;27.91;38.00;100205.91;4925262;28;20226;-77
2023/08/04 07:32:21;;;;;;;9.15;2.55;;;;;;;27.92;38.08;100202.09;4922731;28;20297;-79
2023/08/04 07:34:48;;;;;;;5.55;1.77;;;;;;;27.97;37.97;100208.69;4928898;28;20668;-78
2023/08/04 07:37:14;;;;;;;9.23;2.85;;;;;;;27.74;36.51;100139.72;4933900;28;20223;-77
2023/08/04 07:39:41;;;;;;;7.60;2.58;;;;;;;28.01;37.91;100145.16;4935670;28;20910;-79
2023/08/04 07:42:08;;;;;;;7.85;2.40;;;;;;;28.13;35.25;100155.84;4932113;28;20125;-78
2023/08/04 07:44:41;;;;;;;5.05;2.97;;;;;;;27.75;37.60;100084.13;4940651;28;20250;-79
2023/08/04 07:47:16;;;;;;;7.90;2.38;;;;;;;28.33;34.98;100180.53;4911341;28;20074;-79
2023/08/04 07:49:47;;;;;;;8.90;2.58;;;;;;;28.27;34.74;100165.22;4897543;28;20042;-79
2023/08/04 07:52:15;;;;;;;5.45;2.20;;;;;;;28.40;38.26;100174.00;4932519;28;20050;-79
2023/08/04 07:54:48;;;;;;;9.25;2.67;;;;;;;28.32;35.57;100154.31;4916075;28;20210;-80
2023/08/04 07:57:22;;;;;;;6.57;1.88;;;;;;;28.55;35.37;100190.53;4925826;28;20047;-80
2023/08/04 07:59:50;;;;;;;10.05;2.47;;;;;;;28.45;35.21;100194.03;4934205;28;20057;-79
2023/08/04 08:02:20;;;;;;;7.38;2.20;;;;;;;28.34;36.62;100197.72;4937457;28;20070;-79
2023/08/04 08:04:51;;;;;;;8.38;2.30;;;;;;;28.45;38.21;100204.94;4939293;28;20061;-79
2023/08/04 08:07:19;;;;;;;8.27;2.67;;;;;;;28.12;36.29;100157.75;4956433;28;20510;-80
2023/08/04 08:10:02;;;;;;;8.70;2.40;;;;;;;28.46;37.64;100205.75;4947435;28;20056;-80
2023/08/04 08:12:30;;;;;;;5.70;2.10;;;;;;;28.43;36.11;100203.53;4913647;28;20051;-79
2023/08/04 08:15:08;;;;;;;5.60;2.22;;;;;;;28.25;37.16;100211.03;4892014;28;20170;-79
2023/08/04 08:17:41;;;;;;;19.58;2.53;;;;;;;28.27;37.28;100203.41;4901503;28;20586;-79
2023/08/04 08:20:08;;;;;;;6.28;2.20;;;;;;;28.22;38.22;100195.19;4937799;28;20340;-78
2023/08/04 08:22:35;;;;;;;11.10;2.42;;;;;;;28.30;38.99;100202.91;4925483;28;20047;-78
2023/08/04 08:25:02;;;;;;;7.03;2.13;;;;;;;28.25;39.40;100189.22;4965704;28;20103;-77
2023/08/04 08:27:34;;;;;;;9.50;2.40;;;;;;;27.96;39.32;100138.81;4946815;28;20042;-77
2023/08/04 08:30:06;;;;;;;7.93;2.20;;;;;;;28.15;38.30;100175.50;4922898;28;20078;-79
2023/08/04 08:32:44;;;;;;;7.07;2.15;;;;;;;28.25;38.70;100189.22;4906416;28;20054;-78
2023/08/04 08:35:27;;;;;;;8.73;2.72;;;;;;;28.07;39.69;100170.56;4898766;28;20042;-79
2023/08/04 08:38:03;;;;;;;6.22;2.17;;;;;;;28.05;39.77;100195.38;4940493;28;20054;-79
2023/08/04 08:40:29;;;;;;;9.98;2.40;;;;;;;28.15;39.82;100196.53;4950633;28;20054;-77
2023/08/04 08:42:57;;;;;;;7.55;2.47;;;;;;;27.71;38.86;100107.53;4940742;28;20066;-78
2023/08/04 08:45:32;;;;;;;6.57;2.60;;;;;;;28.00;38.54;100153.59;4954257;28;20476;-78
2023/08/04 08:48:02;;;;;;;4.63;2.13;;;;;;;28.19;39.22;100163.00;4955906;28;20459;-78
2023/08/04 08:50:33;;;;;;;15.00;2.65;;;;;;;28.12;38.22;100162.41;4956152;28;20500;-78
2023/08/04 08:53:23;;;;;;;6.18;2.13;;;;;;;28.12;41.39;100159.66;4961129;28;20054;-78
2023/08/04 08:55:50;;;;;;;9.70;2.97;;;;;;;28.13;40.30;100174.94;4883479;28;20714;-79
2023/08/04 08:58:21;;;;;;;6.78;3.05;;;;;;;27.91;40.52;100143.19;4921155;28;20415;-78
2023/08/04 09:00:53;;;;;;;8.57;3.03;;;;;;;28.12;39.14;100174.13;4930179;28;20611;-78
2023/08/04 09:03:32;;;;;;;12.48;3.10;;;;;;;27.97;39.68;100141.31;4937715;28;20929;-78
2023/08/04 09:06:01;;;;;;;8.73;2.85;;;;;;;28.42;40.99;100199.13;4955789;28;20058;-78
2023/08/04 09:08:29;;;;;;;8.60;2.97;;;;;;;28.42;40.40;100215.53;4955265;28;20322;-78
2023/08/04 09:10:57;;;;;;;10.10;2.83;;;;;;;28.52;39.94;100219.19;4922398;28;20057;-79
2023/08/04 09:13:26;;;;;;;9.82;3.03;;;;;;;28.60;40.80;100223.31;4961282;28;20050;-78
2023/08/04 09:16:00;;;;;;;13.85;2.47;;;;;;;28.59;38.79;100179.88;4950274;28;20056;-79
2023/08/04 09:18:33;;;;;;;9.30;2.53;;;;;;;28.64;40.38;100207.19;4974252;28;20540;-79
2023/08/04 09:21:11;;;;;;;8.25;2.20;;;;;;;28.71;39.39;100213.25;4951250;28;20051;-79
2023/08/04 09:23:45;;;;;;;12.82;3.17;;;;;;;28.38;38.20;100171.56;4946741;28;20125;-78
2023/08/04 09:26:18;;;;;;;9.07;2.67;;;;;;;28.79;39.99;100228.28;4880056;28;20137;-78
2023/08/04 09:28:47;;;;;;;10.85;2.72;;;;;;;28.69;39.41;100209.94;4910884;28;20051;-79
2023/08/04 09:31:14;;;;;;;15.65;2.88;;;;;;;28.70;39.19;100206.16;4932695;28;20391;-78
2023/08/04 09:33:43;;;;;;;10.90;2.53;;;;;;;28.50;38.24;100177.66;4955434;28;20050;-78
2023/08/04 09:36:17;;;;;;;9.75;2.47;;;;;;;28.20;39.80;100141.97;4965890;28;20058;-78
2023/08/04 09:38:45;;;;;;;6.30;2.45;;;;;;;28.80;37.26;100238.16;4958610;28;20413;-79
2023/08/04 09:41:14;;;;;;;7.00;2.67;;;;;;;28.85;39.35;100251.81;4964414;28;20058;-81
2023/08/04 09:43:49;;;;;;;10.30;3.55;;;;;;;28.67;39.72;100231.25;4961298;28;20060;-79
2023/08/04 09:46:22;;;;;;;4.90;2.05;;;;;;;28.73;40.49;100241.94;4931517;28;20320;-79
2023/08/04 09:49:03;;;;;;;10.15;3.15;;;;;;;28.39;39.19;100210.59;4918482;28;20387;-79
2023/08/04 09:51:43;;;;;;;7.10;2.50;;;;;;;28.68;38.90;100239.19;4902784;28;20489;-79
2023/08/04 09:54:10;;;;;;;7.78;2.92;;;;;;;28.50;37.86;100212.34;4939678;28;20394;-78
2023/08/04 09:56:39;;;;;;;5.20;2.53;;;;;;;28.72;37.21;100264.88;4935993;28;20080;-79
2023/08/04 09:59:07;;;;;;;11.98;3.50;;;;;;;28.56;37.36;100271.34;4896107;28;20046;-78
2023/08/04 10:01:34;;;;;;;10.23;3.05;;;;;;;28.51;38.94;100263.13;4917161;28;20514;-80
2023/08/04 10:04:02;;;;;;;8.75;2.83;;;;;;;28.68;37.58;100277.41;4919951;28;20055;-79
2023/08/04 10:06:30;;;;;;;7.55;2.97;;;;;;;28.49;39.02;100260.63;4957477;28;20054;-78
2023/08/04 10:08:57;;;;;;;7.50;2.65;;;;;;;28.52;37.31;100235.56;4953769;28;20223;-80
2023/08/04 10:11:24;;;;;;;6.28;2.50;;;;;;;28.51;38.08;100252.19;4976410;28;20744;-80
2023/08/04 10:13:56;;;;;;;9.05;2.72;;;;;;;28.37;37.32;100250.97;4945164;28;20476;-78
2023/08/04 10:16:31;;;;;;;6.22;2.47;;;;;;;28.44;40.51;100259.75;4961169;28;20085;-79
2023/08/04 10:19:04;;;;;;;7.07;2.40;;;;;;;28.59;38.94;100264.50;4961075;28;20061;-77
2023/08/04 10:21:43;;;;;;;15.23;2.70;;;;;;;28.39;38.52;100241.44;4897303;28;20059;-79
2023/08/04 10:24:14;;;;;;;14.85;2.83;;;;;;;28.15;38.17;100210.97;4910677;28;20500;-78
2023/08/04 10:26:51;;;;;;;13.20;2.75;;;;;;;28.45;37.29;100254.06;4942442;28;20411;-79
2023/08/04 10:29:19;;;;;;;3.95;2.47;;;;;;;28.40;38.77;100234.06;4958101;28;20306;-78
2023/08/04 10:31:52;;;;;;;5.65;2.42;;;;;;;28.26;38.96;100222.81;4952994;28;20112;-80
2023/08/04 10:34:32;;;;;;;5.38;2.65;;;;;;;28.55;39.00;100266.97;4960761;28;20306;-80
2023/08/04 10:37:06;;;;;;;8.20;2.40;;;;;;;28.42;38.48;100248.28;4935592;28;20050;-78
2023/08/04 10:39:37;;;;;;;6.70;2.42;;;;;;;28.43;39.55;100244.47;4936483;28;20042;-80
2023/08/04 10:42:14;;;;;;;11.65;2.83;;;;;;;28.38;38.33;100247.19;4946863;28;20081;-79
2023/08/04 10:44:56;;;;;;;7.95;2.53;;;;;;;28.34;38.70;100257.78;4958819;28;20493;-78
2023/08/04 10:47:44;;;;;;;5.82;2.47;;;;;;;28.26;39.02;100256.38;4968793;28;20115;-77
2023/08/04 10:50:18;;;;;;;11.70;2.97;;;;;;;28.22;39.94;100257.97;4953823;28;20055;-79
2023/08/04 10:52:45;;;;;;;10.45;2.60;;;;;;;27.94;40.65;100209.19;4923078;28;20438;-77
2023/08/04 10:55:13;;;;;;;12.43;2.63;;;;;;;27.97;43.59;100181.41;4915101;28;20479;-79
2023/08/04 10:57:41;;;;;;;8.82;2.40;;;;;;;28.45;42.32;100258.66;4959173;28;20237;-79
2023/08/04 11:00:14;;;;;;;6.80;2.75;;;;;;;28.23;41.82;100228.75;4921099;28;20054;-79
2023/08/04 11:02:49;;;;;;;6.35;2.15;;;;;;;28.46;41.87;100249.44;4927379;28;20057;-77
2023/08/04 11:05:24;;;;;;;8.60;2.83;;;;;;;28.27;39.13;100230.72;4922693;28;20097;-79
2023/08/04 11:07:51;;;;;;;8.15;2.65;;;;;;;28.47;40.50;100251.91;4932361;28;20211;-81
2023/08/04 11:10:20;;;;;;;8.77;2.83;;;;;;;28.21;39.87;100201.75;4931557;28;20414;-79
2023/08/04 11:12:52;;;;;;;9.23;3.08;;;;;;;27.76;38.87;100137.56;4951213;28;20062;-80
2023/08/04 11:15:20;;;;;;;10.15;2.95;;;;;;;28.55;40.61;100248.66;4985934;28;20045;-77
2023/08/04 11:17:46;;;;;;;8.82;2.55;;;;;;;28.35;39.04;100218.47;4926791;28;20067;-81
2023/08/04 11:20:15;;;;;;;8.02;1.98;;;;;;;28.42;38.04;100242.81;4898636;28;20054;-80
2023/08/04 11:22:48;;;;;;;6.88;2.15;;;;;;;28.40;40.00;100255.91;4929346;28;20332;-80
2023/08/04 11:25:18;;;;;;;6.88;2.10;;;;;;;28.45;40.10;100254.06;4981448;28;20269;-80
2023/08/04 11:27:45;;;;;;;11.20;2.80;;;;;;;28.22;39.69;100233.41;4961623;28;20237;-80
2023/08/04 11:30:12;;;;;;;14.25;2.50;;;;;;;28.28;39.16;100231.56;4957577;28;20309;-80
2023/08/04 11:32:39;;;;;;;10.30;2.58;;;;;;;28.17;38.60;100225.19;4957872;28;20046;-81
2023/08/04 11:35:06;;;;;;;7.45;2.83;;;;;;;28.31;38.40;100252.84;4942479;28;20919;-81
2023/08/04 11:37:33;;;;;;;9.65;2.60;;;;;;;28.00;40.43;100205.44;4954207;28;20061;-79